sensor_id;sensor_type;location;lat;lon;timestamp;pressure;altitude;pressure_sealevel;temperature;humidity
56681;BME280;42558;52.388;13.390;2022-08-27T00:01:46;100691.88;;;18.66;100.00
56681;BME280;42558;52.388;13.390;2022-08-27T00:04:14;100683.83;;;18.69;100.00
56681;BME280;42558;52.388;13.390;2022-08-27T00:06:41;100679.22;;;18.68;100.00
56681;BME280;42558;52.388;13.390;2022-08-27T00:09:12;100673.10;;;18.71;100.00
56681;BME280;42558;52.388;13.390;2022-08-27T00:11:39;100668.98;;;18.73;100.00
56681;BME280;42558;52.388;13.390;2022-08-27T00:14:07;100668.25;;;18.72;100.00
56681;BME280;42558;52.388;13.390;2022-08-27T00:16:34;100666.30;;;18.71;100.00
56681;BME280;42558;52.388;13.390;2022-08-27T00:19:02;100662.56;;;18.71;100.00
56681;BME280;42558;52.388;13.390;2022-08-27T00:21:30;100658.13;;;18.71;100.00
56681;BME280;42558;52.388;13.390;2022-08-27T00:23:59;100655.35;;;18.68;100.00
56681;BME280;42558;52.388;13.390;2022-08-27T00:26:27;100653.42;;;18.66;100.00
56681;BME280;42558;52.388;13.390;2022-08-27T00:28:55;100655.77;;;18.63;100.00
56681;BME280;42558;52.388;13.390;2022-08-27T00:31:22;100657.54;;;18.56;100.00
56681;BME280;42558;52.388;13.390;2022-08-27T00:33:54;100658.45;;;18.54;100.00
56681;BME280;42558;52.388;13.390;2022-08-27T00:36:22;100659.28;;;18.57;100.00
56681;BME280;42558;52.388;13.390;2022-08-27T00:38:50;100658.48;;;18.53;100.00
56681;BME280;42558;52.388;13.390;2022-08-27T00:41:20;100660.09;;;18.53;100.00
56681;BME280;42558;52.388;13.390;2022-08-27T00:43:57;100656.29;;;18.63;100.00
56681;BME280;42558;52.388;13.390;2022-08-27T00:46:48;100655.73;;;18.67;100.00
56681;BME280;42558;52.388;13.390;2022-08-27T00:49:51;100653.17;;;18.69;100.00
56681;BME280;42558;52.388;13.390;2022-08-27T00:52:34;100655.23;;;18.74;100.00
56681;BME280;42558;52.388;13.390;2022-08-27T00:55:13;100655.71;;;18.76;100.00
56681;BME280;42558;52.388;13.390;2022-08-27T00:57:46;100657.79;;;18.78;100.00
56681;BME280;42558;52.388;13.390;2022-08-27T01:00:18;100651.56;;;18.78;100.00
56681;BME280;42558;52.388;13.390;2022-08-27T01:02:46;100655.23;;;18.82;100.00
56681;BME280;42558;52.388;13.390;2022-08-27T01:05:20;100654.85;;;18.83;100.00
56681;BME280;42558;52.388;13.390;2022-08-27T01:07:56;100652.13;;;18.86;100.00
56681;BME280;42558;52.388;13.390;2022-08-27T01:10:27;100654.85;;;18.90;100.00
56681;BME280;42558;52.388;13.390;2022-08-27T01:12:56;100651.60;;;18.93;100.00
56681;BME280;42558;52.388;13.390;2022-08-27T01:15:26;100647.83;;;18.94;100.00
56681;BME280;42558;52.388;13.390;2022-08-27T01:17:55;100644.31;;;18.91;100.00
56681;BME280;42558;52.388;13.390;2022-08-27T01:20:46;100641.88;;;18.90;100.00
56681;BME280;42558;52.388;13.390;2022-08-27T01:26:04;100644.73;;;18.81;100.00
56681;BME280;42558;52.388;13.390;2022-08-27T01:28:35;100648.42;;;18.75;100.00
56681;BME280;42558;52.388;13.390;2022-08-27T01:31:09;100652.90;;;18.74;100.00
56681;BME280;42558;52.388;13.390;2022-08-27T01:33:37;100655.96;;;18.73;100.00
56681;BME280;42558;52.388;13.390;2022-08-27T01:36:06;100664.16;;;18.72;100.00
56681;BME280;42558;52.388;13.390;2022-08-27T01:38:34;100665.48;;;18.69;100.00
56681;BME280;42558;52.388;13.390;2022-08-27T01:41:02;100662.14;;;18.66;100.00
56681;BME280;42558;52.388;13.390;2022-08-27T01:43:29;100661.98;;;18.67;100.00
56681;BME280;42558;52.388;13.390;2022-08-27T01:45:57;100658.36;;;18.68;100.00
56681;BME280;42558;52.388;13.390;2022-08-27T01:48:24;100657.59;;;18.72;100.00
56681;BME280;42558;52.388;13.390;2022-08-27T01:50:51;100660.45;;;18.72;100.00
56681;BME280;42558;52.388;13.390;2022-08-27T01:53:23;100663.89;;;18.68;100.00
56681;BME280;42558;52.388;13.390;2022-08-27T01:55:52;100664.75;;;18.60;100.00
56681;BME280;42558;52.388;13.390;2022-08-27T01:58:25;100664.92;;;18.60;100.00
56681;BME280;42558;52.388;13.390;2022-08-27T02:00:56;100666.56;;;18.59;100.00
56681;BME280;42558;52.388;13.390;2022-08-27T02:03:25;100666.04;;;18.58;100.00
56681;BME280;42558;52.388;13.390;2022-08-27T02:05:52;100666.02;;;18.58;100.00
56681;BME280;42558;52.388;13.390;2022-08-27T02:08:20;100668.70;;;18.58;100.00
56681;BME280;42558;52.388;13.390;2022-08-27T02:10:49;100671.02;;;18.58;100.00
56681;BME280;42558;52.388;13.390;2022-08-27T02:13:17;100673.85;;;18.59;100.00
56681;BME280;42558;52.388;13.390;2022-08-27T02:15:44;100673.31;;;18.59;100.00
56681;BME280;42558;52.388;13.390;2022-08-27T02:18:12;100674.91;;;18.59;100.00
56681;BME280;42558;52.388;13.390;2022-08-27T02:20:41;100678.27;;;18.61;100.00
56681;BME280;42558;52.388;13.390;2022-08-27T02:23:09;100674.45;;;18.64;100.00
56681;BME280;42558;52.388;13.390;2022-08-27T02:25:37;100675.48;;;18.67;100.00
56681;BME280;42558;52.388;13.390;2022-08-27T02:28:04;100675.05;;;18.70;100.00
56681;BME280;42558;52.388;13.390;2022-08-27T02:30:33;100669.38;;;18.70;100.00
56681;BME280;42558;52.388;13.390;2022-08-27T02:33:02;100669.24;;;18.68;100.00
56681;BME280;42558;52.388;13.390;2022-08-27T02:35:33;100674.25;;;18.66;100.00
56681;BME280;42558;52.388;13.390;2022-08-27T02:38:00;100675.33;;;18.65;100.00
56681;BME280;42558;52.388;13.390;2022-08-27T02:40:28;100680.88;;;18.63;100.00
56681;BME280;42558;52.388;13.390;2022-08-27T02:42:55;100682.65;;;18.65;100.00
56681;BME280;42558;52.388;13.390;2022-08-27T02:45:22;100686.89;;;18.66;100.00
56681;BME280;42558;52.388;13.390;2022-08-27T02:47:49;100688.88;;;18.66;100.00
56681;BME280;42558;52.388;13.390;2022-08-27T02:50:16;100684.06;;;18.66;100.00
56681;BME280;42558;52.388;13.390;2022-08-27T02:52:43;100682.73;;;18.70;100.00
56681;BME280;42558;52.388;13.390;2022-08-27T02:55:13;100676.45;;;18.72;100.00
56681;BME280;42558;52.388;13.390;2022-08-27T02:57:43;100678.57;;;18.73;100.00
56681;BME280;42558;52.388;13.390;2022-08-27T03:00:16;100683.34;;;18.75;100.00
56681;BME280;42558;52.388;13.390;2022-08-27T03:02:45;100683.48;;;18.76;100.00
56681;BME280;42558;52.388;13.390;2022-08-27T03:05:14;100677.60;;;18.76;100.00
56681;BME280;42558;52.388;13.390;2022-08-27T03:07:42;100680.67;;;18.75;100.00
56681;BME280;42558;52.388;13.390;2022-08-27T03:10:12;100684.20;;;18.76;100.00
56681;BME280;42558;52.388;13.390;2022-08-27T03:12:40;100680.96;;;18.77;100.00
56681;BME280;42558;52.388;13.390;2022-08-27T03:15:12;100680.59;;;18.78;100.00
56681;BME280;42558;52.388;13.390;2022-08-27T03:17:40;100680.05;;;18.79;100.00
56681;BME280;42558;52.388;13.390;2022-08-27T03:20:27;100672.73;;;18.80;100.00
56681;BME280;42558;52.388;13.390;2022-08-27T03:22:54;100672.70;;;18.82;100.00
56681;BME280;42558;52.388;13.390;2022-08-27T03:25:21;100671.58;;;18.84;100.00
56681;BME280;42558;52.388;13.390;2022-08-27T03:27:48;100675.70;;;18.83;100.00
56681;BME280;42558;52.388;13.390;2022-08-27T03:30:19;100674.31;;;18.81;100.00
56681;BME280;42558;52.388;13.390;2022-08-27T03:32:46;100670.60;;;18.80;100.00
56681;BME280;42558;52.388;13.390;2022-08-27T03:35:14;100672.36;;;18.81;100.00
56681;BME280;42558;52.388;13.390;2022-08-27T03:37:41;100672.48;;;18.83;100.00
56681;BME280;42558;52.388;13.390;2022-08-27T03:40:09;100671.27;;;18.82;100.00
56681;BME280;42558;52.388;13.390;2022-08-27T03:42:39;100668.91;;;18.83;100.00
56681;BME280;42558;52.388;13.390;2022-08-27T03:45:08;100668.01;;;18.84;100.00
56681;BME280;42558;52.388;13.390;2022-08-27T03:47:36;100672.11;;;18.84;100.00
56681;BME280;42558;52.388;13.390;2022-08-27T03:50:06;100675.31;;;18.84;100.00
56681;BME280;42558;52.388;13.390;2022-08-27T03:52:34;100676.55;;;18.85;100.00
56681;BME280;42558;52.388;13.390;2022-08-27T03:55:05;100680.31;;;18.84;100.00
56681;BME280;42558;52.388;13.390;2022-08-27T03:57:33;100678.73;;;18.82;100.00
56681;BME280;42558;52.388;13.390;2022-08-27T04:00:00;100671.30;;;18.72;100.00
56681;BME280;42558;52.388;13.390;2022-08-27T04:02:27;100668.01;;;18.67;100.00
56681;BME280;42558;52.388;13.390;2022-08-27T04:04:55;100664.02;;;18.61;100.00
56681;BME280;42558;52.388;13.390;2022-08-27T04:07:23;100662.51;;;18.56;100.00
56681;BME280;42558;52.388;13.390;2022-08-27T04:09:50;100657.75;;;18.55;100.00
56681;BME280;42558;52.388;13.390;2022-08-27T04:12:17;100654.58;;;18.53;100.00
56681;BME280;42558;52.388;13.390;2022-08-27T04:14:44;100655.13;;;18.52;100.00
56681;BME280;42558;52.388;13.390;2022-08-27T04:17:12;100652.77;;;18.54;100.00
56681;BME280;42558;52.388;13.390;2022-08-27T04:19:39;100655.47;;;18.52;100.00
56681;BME280;42558;52.388;13.390;2022-08-27T04:22:06;100656.37;;;18.52;100.00
56681;BME280;42558;52.388;13.390;2022-08-27T04:24:35;100662.61;;;18.51;100.00
56681;BME280;42558;52.388;13.390;2022-08-27T04:27:05;100661.66;;;18.54;100.00
56681;BME280;42558;52.388;13.390;2022-08-27T04:29:32;100662.69;;;18.56;100.00
56681;BME280;42558;52.388;13.390;2022-08-27T04:32:00;100661.16;;;18.54;100.00
56681;BME280;42558;52.388;13.390;2022-08-27T04:34:28;100664.85;;;18.55;100.00
56681;BME280;42558;52.388;13.390;2022-08-27T04:36:57;100670.34;;;18.56;100.00
56681;BME280;42558;52.388;13.390;2022-08-27T04:39:26;100670.14;;;18.57;100.00
56681;BME280;42558;52.388;13.390;2022-08-27T04:41:57;100674.21;;;18.60;100.00
56681;BME280;42558;52.388;13.390;2022-08-27T04:44:32;100670.30;;;18.58;100.00
56681;BME280;42558;52.388;13.390;2022-08-27T04:47:03;100670.65;;;18.58;100.00
56681;BME280;42558;52.388;13.390;2022-08-27T04:49:31;100670.31;;;18.57;100.00
56681;BME280;42558;52.388;13.390;2022-08-27T04:51:59;100666.11;;;18.55;100.00
56681;BME280;42558;52.388;13.390;2022-08-27T04:54:26;100665.50;;;18.58;100.00
56681;BME280;42558;52.388;13.390;2022-08-27T04:57:04;100669.67;;;18.55;100.00
56681;BME280;42558;52.388;13.390;2022-08-27T04:59:33;100672.99;;;18.58;100.00
56681;BME280;42558;52.388;13.390;2022-08-27T05:02:02;100675.79;;;18.60;100.00
56681;BME280;42558;52.388;13.390;2022-08-27T05:04:32;100677.44;;;18.58;100.00
56681;BME280;42558;52.388;13.390;2022-08-27T05:07:00;100682.28;;;18.56;100.00
56681;BME280;42558;52.388;13.390;2022-08-27T05:09:27;100684.09;;;18.55;100.00
56681;BME280;42558;52.388;13.390;2022-08-27T05:11:55;100683.67;;;18.57;100.00
56681;BME280;42558;52.388;13.390;2022-08-27T05:14:23;100685.64;;;18.57;100.00
56681;BME280;42558;52.388;13.390;2022-08-27T05:16:57;100690.95;;;18.59;100.00
56681;BME280;42558;52.388;13.390;2022-08-27T05:19:25;100692.17;;;18.60;100.00
56681;BME280;42558;52.388;13.390;2022-08-27T05:21:52;100690.03;;;18.61;100.00
56681;BME280;42558;52.388;13.390;2022-08-27T05:24:20;100687.77;;;18.58;100.00
56681;BME280;42558;52.388;13.390;2022-08-27T05:26:49;100686.19;;;18.56;100.00
56681;BME280;42558;52.388;13.390;2022-08-27T05:29:16;100685.63;;;18.58;100.00
56681;BME280;42558;52.388;13.390;2022-08-27T05:31:44;100685.27;;;18.58;100.00
56681;BME280;42558;52.388;13.390;2022-08-27T05:34:14;100681.02;;;18.57;100.00
56681;BME280;42558;52.388;13.390;2022-08-27T05:36:50;100683.44;;;18.61;100.00
56681;BME280;42558;52.388;13.390;2022-08-27T05:39:18;100678.17;;;18.56;100.00
56681;BME280;42558;52.388;13.390;2022-08-27T05:41:45;100679.38;;;18.59;100.00
56681;BME280;42558;52.388;13.390;2022-08-27T05:44:12;100675.71;;;18.55;100.00
56681;BME280;42558;52.388;13.390;2022-08-27T05:47:02;100678.65;;;18.59;100.00
56681;BME280;42558;52.388;13.390;2022-08-27T05:49:29;100679.90;;;18.59;100.00
56681;BME280;42558;52.388;13.390;2022-08-27T05:51:57;100677.59;;;18.59;100.00
56681;BME280;42558;52.388;13.390;2022-08-27T05:54:24;100683.38;;;18.63;100.00
56681;BME280;42558;52.388;13.390;2022-08-27T05:56:50;100685.41;;;18.60;100.00
56681;BME280;42558;52.388;13.390;2022-08-27T05:59:18;100683.38;;;18.64;100.00
56681;BME280;42558;52.388;13.390;2022-08-27T06:02:05;100683.14;;;18.68;100.00
56681;BME280;42558;52.388;13.390;2022-08-27T06:04:33;100682.22;;;18.69;100.00
56681;BME280;42558;52.388;13.390;2022-08-27T06:07:00;100681.84;;;18.70;100.00
56681;BME280;42558;52.388;13.390;2022-08-27T06:09:28;100681.69;;;18.77;100.00
56681;BME280;42558;52.388;13.390;2022-08-27T06:11:58;100680.83;;;18.84;100.00
56681;BME280;42558;52.388;13.390;2022-08-27T06:14:26;100684.02;;;18.85;100.00
56681;BME280;42558;52.388;13.390;2022-08-27T06:16:53;100685.13;;;18.91;100.00
56681;BME280;42558;52.388;13.390;2022-08-27T06:19:22;100683.57;;;18.89;100.00
56681;BME280;42558;52.388;13.390;2022-08-27T06:21:49;100680.78;;;18.87;100.00
56681;BME280;42558;52.388;13.390;2022-08-27T06:24:39;100684.19;;;18.94;100.00
56681;BME280;42558;52.388;13.390;2022-08-27T06:27:10;100688.36;;;18.90;100.00
56681;BME280;42558;52.388;13.390;2022-08-27T06:29:39;100690.45;;;18.92;100.00
56681;BME280;42558;52.388;13.390;2022-08-27T06:32:07;100694.25;;;18.97;100.00
56681;BME280;42558;52.388;13.390;2022-08-27T06:34:36;100701.33;;;19.00;100.00
56681;BME280;42558;52.388;13.390;2022-08-27T06:37:05;100702.67;;;19.03;100.00
56681;BME280;42558;52.388;13.390;2022-08-27T06:39:32;100701.33;;;19.00;100.00
56681;BME280;42558;52.388;13.390;2022-08-27T06:42:03;100705.06;;;19.00;100.00
56681;BME280;42558;52.388;13.390;2022-08-27T06:44:30;100704.48;;;19.02;100.00
56681;BME280;42558;52.388;13.390;2022-08-27T06:46:58;100707.14;;;19.03;100.00
56681;BME280;42558;52.388;13.390;2022-08-27T06:49:25;100707.48;;;19.04;100.00
56681;BME280;42558;52.388;13.390;2022-08-27T06:51:52;100713.31;;;19.06;100.00
56681;BME280;42558;52.388;13.390;2022-08-27T06:54:19;100710.14;;;19.12;100.00
56681;BME280;42558;52.388;13.390;2022-08-27T06:56:47;100713.48;;;19.15;100.00
56681;BME280;42558;52.388;13.390;2022-08-27T06:59:17;100719.06;;;19.12;100.00
56681;BME280;42558;52.388;13.390;2022-08-27T07:01:48;100713.81;;;19.08;100.00
56681;BME280;42558;52.388;13.390;2022-08-27T07:04:23;100717.80;;;19.04;100.00
56681;BME280;42558;52.388;13.390;2022-08-27T07:07:00;100720.40;;;19.00;100.00
56681;BME280;42558;52.388;13.390;2022-08-27T07:09:29;100724.64;;;19.01;100.00
56681;BME280;42558;52.388;13.390;2022-08-27T07:11:59;100725.80;;;19.05;100.00
56681;BME280;42558;52.388;13.390;2022-08-27T07:14:28;100726.40;;;19.02;100.00
56681;BME280;42558;52.388;13.390;2022-08-27T07:17:03;100730.91;;;19.08;100.00
56681;BME280;42558;52.388;13.390;2022-08-27T07:19:31;100731.92;;;19.11;100.00
56681;BME280;42558;52.388;13.390;2022-08-27T07:21:58;100732.64;;;19.10;100.00
56681;BME280;42558;52.388;13.390;2022-08-27T07:24:25;100732.04;;;19.05;100.00
56681;BME280;42558;52.388;13.390;2022-08-27T07:26:52;100737.85;;;19.09;100.00
56681;BME280;42558;52.388;13.390;2022-08-27T07:29:19;100740.73;;;19.08;100.00
56681;BME280;42558;52.388;13.390;2022-08-27T07:31:46;100738.44;;;19.06;100.00
56681;BME280;42558;52.388;13.390;2022-08-27T07:34:13;100738.40;;;19.08;100.00
56681;BME280;42558;52.388;13.390;2022-08-27T07:36:40;100738.11;;;19.13;100.00
56681;BME280;42558;52.388;13.390;2022-08-27T07:39:07;100735.08;;;19.13;100.00
56681;BME280;42558;52.388;13.390;2022-08-27T07:41:35;100731.94;;;19.10;100.00
56681;BME280;42558;52.388;13.390;2022-08-27T07:44:22;100729.77;;;19.11;100.00
56681;BME280;42558;52.388;13.390;2022-08-27T07:47:00;100728.52;;;19.11;100.00
56681;BME280;42558;52.388;13.390;2022-08-27T07:49:29;100732.60;;;19.12;100.00
56681;BME280;42558;52.388;13.390;2022-08-27T07:51:57;100732.46;;;19.10;100.00
56681;BME280;42558;52.388;13.390;2022-08-27T07:54:24;100734.00;;;19.14;100.00
56681;BME280;42558;52.388;13.390;2022-08-27T07:56:53;100734.30;;;19.16;100.00
56681;BME280;42558;52.388;13.390;2022-08-27T07:59:25;100735.61;;;19.21;100.00
56681;BME280;42558;52.388;13.390;2022-08-27T08:01:55;100731.94;;;19.26;100.00
56681;BME280;42558;52.388;13.390;2022-08-27T08:04:23;100731.61;;;19.24;100.00
56681;BME280;42558;52.388;13.390;2022-08-27T08:06:52;100733.52;;;19.26;100.00
56681;BME280;42558;52.388;13.390;2022-08-27T08:09:21;100732.07;;;19.28;100.00
56681;BME280;42558;52.388;13.390;2022-08-27T08:11:51;100735.83;;;19.27;100.00
56681;BME280;42558;52.388;13.390;2022-08-27T08:14:19;100732.76;;;19.37;100.00
56681;BME280;42558;52.388;13.390;2022-08-27T08:16:46;100738.55;;;19.41;100.00
56681;BME280;42558;52.388;13.390;2022-08-27T08:19:13;100735.36;;;19.48;100.00
56681;BME280;42558;52.388;13.390;2022-08-27T08:21:40;100737.92;;;19.52;100.00
56681;BME280;42558;52.388;13.390;2022-08-27T08:24:08;100738.70;;;19.59;100.00
56681;BME280;42558;52.388;13.390;2022-08-27T08:26:35;100737.25;;;19.67;100.00
56681;BME280;42558;52.388;13.390;2022-08-27T08:29:02;100735.70;;;19.72;100.00
56681;BME280;42558;52.388;13.390;2022-08-27T08:31:30;100732.13;;;19.87;100.00
56681;BME280;42558;52.388;13.390;2022-08-27T08:33:57;100725.17;;;20.00;100.00
56681;BME280;42558;52.388;13.390;2022-08-27T08:36:24;100722.38;;;20.05;100.00
56681;BME280;42558;52.388;13.390;2022-08-27T08:38:53;100718.43;;;19.98;100.00
56681;BME280;42558;52.388;13.390;2022-08-27T08:44:19;100706.04;;;19.88;100.00
56681;BME280;42558;52.388;13.390;2022-08-27T08:47:03;100707.61;;;19.96;100.00
56681;BME280;42558;52.388;13.390;2022-08-27T08:49:45;100705.83;;;19.90;100.00
56681;BME280;42558;52.388;13.390;2022-08-27T08:55:43;100709.13;;;20.00;100.00
56681;BME280;42558;52.388;13.390;2022-08-27T08:58:47;100710.70;;;19.94;100.00
56681;BME280;42558;52.388;13.390;2022-08-27T09:01:18;100710.92;;;19.93;100.00
56681;BME280;42558;52.388;13.390;2022-08-27T09:03:54;100710.05;;;19.85;100.00
56681;BME280;42558;52.388;13.390;2022-08-27T09:06:35;100712.69;;;19.79;100.00
56681;BME280;42558;52.388;13.390;2022-08-27T09:09:20;100719.83;;;19.86;100.00
56681;BME280;42558;52.388;13.390;2022-08-27T09:17:23;100701.89;;;19.97;100.00
56681;BME280;42558;52.388;13.390;2022-08-27T09:19:51;100698.90;;;20.02;100.00
56681;BME280;42558;52.388;13.390;2022-08-27T09:22:41;100690.91;;;20.07;100.00
56681;BME280;42558;52.388;13.390;2022-08-27T09:25:24;100686.04;;;20.16;100.00
56681;BME280;42558;52.388;13.390;2022-08-27T09:27:57;100683.60;;;20.26;100.00
56681;BME280;42558;52.388;13.390;2022-08-27T09:30:30;100685.82;;;20.43;100.00
56681;BME280;42558;52.388;13.390;2022-08-27T09:33:03;100691.24;;;20.48;100.00
56681;BME280;42558;52.388;13.390;2022-08-27T09:35:45;100695.12;;;20.50;100.00
56681;BME280;42558;52.388;13.390;2022-08-27T09:38:29;100701.94;;;20.55;100.00
56681;BME280;42558;52.388;13.390;2022-08-27T09:41:00;100707.39;;;20.58;100.00
56681;BME280;42558;52.388;13.390;2022-08-27T09:43:29;100710.48;;;20.56;100.00
56681;BME280;42558;52.388;13.390;2022-08-27T09:46:20;100712.13;;;20.67;100.00
56681;BME280;42558;52.388;13.390;2022-08-27T09:48:50;100712.92;;;20.89;100.00
56681;BME280;42558;52.388;13.390;2022-08-27T09:51:25;100721.46;;;20.96;100.00
56681;BME280;42558;52.388;13.390;2022-08-27T09:53:58;100730.19;;;20.97;100.00
56681;BME280;42558;52.388;13.390;2022-08-27T09:56:33;100738.39;;;21.10;100.00
56681;BME280;42558;52.388;13.390;2022-08-27T09:59:11;100743.61;;;20.78;100.00
56681;BME280;42558;52.388;13.390;2022-08-27T10:02:16;100747.86;;;20.61;100.00
56681;BME280;42558;52.388;13.390;2022-08-27T10:04:51;100751.63;;;20.60;100.00
56681;BME280;42558;52.388;13.390;2022-08-27T10:07:42;100753.17;;;20.56;100.00
56681;BME280;42558;52.388;13.390;2022-08-27T10:10:46;100759.73;;;20.57;100.00
56681;BME280;42558;52.388;13.390;2022-08-27T10:13:25;100757.64;;;20.56;100.00
56681;BME280;42558;52.388;13.390;2022-08-27T10:16:23;100756.38;;;20.50;100.00
56681;BME280;42558;52.388;13.390;2022-08-27T10:19:14;100757.75;;;20.45;100.00
56681;BME280;42558;52.388;13.390;2022-08-27T10:31:30;100761.29;;;20.53;100.00
56681;BME280;42558;52.388;13.390;2022-08-27T10:46:38;100767.46;;;20.94;100.00
56681;BME280;42558;52.388;13.390;2022-08-27T10:49:38;100767.30;;;20.94;100.00
56681;BME280;42558;52.388;13.390;2022-08-27T10:52:56;100766.33;;;20.96;100.00
56681;BME280;42558;52.388;13.390;2022-08-27T10:55:31;100765.86;;;21.00;100.00
56681;BME280;42558;52.388;13.390;2022-08-27T11:04:03;100761.29;;;21.28;100.00
56681;BME280;42558;52.388;13.390;2022-08-27T11:06:44;100770.44;;;21.26;100.00
56681;BME280;42558;52.388;13.390;2022-08-27T11:10:08;100766.83;;;21.28;100.00
56681;BME280;42558;52.388;13.390;2022-08-27T11:12:18;100766.11;;;21.22;100.00
56681;BME280;42558;52.388;13.390;2022-08-27T11:17:31;100766.79;;;21.04;100.00
56681;BME280;42558;52.388;13.390;2022-08-27T11:20:17;100769.79;;;21.06;100.00
56681;BME280;42558;52.388;13.390;2022-08-27T11:23:15;100768.14;;;21.13;100.00
56681;BME280;42558;52.388;13.390;2022-08-27T11:25:59;100769.60;;;21.12;100.00
56681;BME280;42558;52.388;13.390;2022-08-27T11:28:36;100769.40;;;21.13;100.00
56681;BME280;42558;52.388;13.390;2022-08-27T11:31:50;100769.17;;;21.09;100.00
56681;BME280;42558;52.388;13.390;2022-08-27T11:34:41;100769.45;;;21.11;100.00
56681;BME280;42558;52.388;13.390;2022-08-27T11:42:47;100767.81;;;21.12;100.00
56681;BME280;42558;52.388;13.390;2022-08-27T11:45:21;100766.34;;;21.14;100.00
56681;BME280;42558;52.388;13.390;2022-08-27T11:47:58;100768.37;;;21.17;100.00
56681;BME280;42558;52.388;13.390;2022-08-27T11:50:29;100768.49;;;21.07;100.00
56681;BME280;42558;52.388;13.390;2022-08-27T11:53:04;100766.69;;;21.08;100.00
56681;BME280;42558;52.388;13.390;2022-08-27T11:55:39;100768.52;;;21.18;100.00
56681;BME280;42558;52.388;13.390;2022-08-27T12:00:39;100767.35;;;21.21;100.00
56681;BME280;42558;52.388;13.390;2022-08-27T12:03:22;100770.63;;;21.27;100.00
56681;BME280;42558;52.388;13.390;2022-08-27T12:11:17;100767.45;;;21.66;100.00
56681;BME280;42558;52.388;13.390;2022-08-27T12:14:24;100767.42;;;21.72;100.00
56681;BME280;42558;52.388;13.390;2022-08-27T12:17:43;100760.84;;;21.76;100.00
56681;BME280;42558;52.388;13.390;2022-08-27T12:20:38;100760.28;;;21.71;100.00
56681;BME280;42558;52.388;13.390;2022-08-27T12:27:00;100757.60;;;21.82;100.00
56681;BME280;42558;52.388;13.390;2022-08-27T12:29:47;100755.98;;;21.77;100.00
56681;BME280;42558;52.388;13.390;2022-08-27T12:37:54;100759.78;;;21.59;100.00
56681;BME280;42558;52.388;13.390;2022-08-27T12:40:37;100757.77;;;21.61;100.00
56681;BME280;42558;52.388;13.390;2022-08-27T12:43:12;100755.29;;;21.66;100.00
56681;BME280;42558;52.388;13.390;2022-08-27T12:45:49;100750.88;;;21.64;100.00
56681;BME280;42558;52.388;13.390;2022-08-27T12:48:26;100746.15;;;21.71;100.00
56681;BME280;42558;52.388;13.390;2022-08-27T12:50:59;100742.70;;;21.83;100.00
56681;BME280;42558;52.388;13.390;2022-08-27T12:56:41;100736.22;;;21.95;100.00
56681;BME280;42558;52.388;13.390;2022-08-27T12:59:59;100734.24;;;21.96;100.00
56681;BME280;42558;52.388;13.390;2022-08-27T13:03:38;100730.90;;;22.10;99.90
56681;BME280;42558;52.388;13.390;2022-08-27T13:05:48;100726.63;;;22.25;100.00
56681;BME280;42558;52.388;13.390;2022-08-27T13:08:28;100729.89;;;22.39;99.91
56681;BME280;42558;52.388;13.390;2022-08-27T13:11:27;100725.50;;;22.47;99.31
56681;BME280;42558;52.388;13.390;2022-08-27T13:14:07;100727.67;;;22.80;97.24
56681;BME280;42558;52.388;13.390;2022-08-27T13:16:37;100732.55;;;22.89;94.20
56681;BME280;42558;52.388;13.390;2022-08-27T13:19:21;100729.16;;;22.74;94.07
56681;BME280;42558;52.388;13.390;2022-08-27T13:21:49;100731.42;;;22.76;93.96
56681;BME280;42558;52.388;13.390;2022-08-27T13:24:47;100723.98;;;22.73;93.79
56681;BME280;42558;52.388;13.390;2022-08-27T13:27:14;100726.77;;;22.71;92.90
56681;BME280;42558;52.388;13.390;2022-08-27T13:29:42;100725.99;;;22.82;92.75
56681;BME280;42558;52.388;13.390;2022-08-27T13:32:13;100719.67;;;23.03;94.05
56681;BME280;42558;52.388;13.390;2022-08-27T13:34:40;100721.00;;;23.05;92.56
56681;BME280;42558;52.388;13.390;2022-08-27T13:42:03;100720.73;;;22.74;92.27
56681;BME280;42558;52.388;13.390;2022-08-27T13:44:39;100721.38;;;22.91;93.11
56681;BME280;42558;52.388;13.390;2022-08-27T13:47:23;100717.77;;;23.10;92.66
56681;BME280;42558;52.388;13.390;2022-08-27T13:50:06;100715.02;;;23.17;91.82
56681;BME280;42558;52.388;13.390;2022-08-27T13:52:37;100718.60;;;23.07;91.34
56681;BME280;42558;52.388;13.390;2022-08-27T13:55:24;100718.77;;;22.98;91.84
56681;BME280;42558;52.388;13.390;2022-08-27T13:57:51;100716.02;;;23.09;92.12
56681;BME280;42558;52.388;13.390;2022-08-27T14:00:32;100712.11;;;23.31;92.49
56681;BME280;42558;52.388;13.390;2022-08-27T14:02:59;100714.45;;;23.35;90.60
56681;BME280;42558;52.388;13.390;2022-08-27T14:05:31;100711.07;;;23.48;91.65
56681;BME280;42558;52.388;13.390;2022-08-27T14:08:15;100712.14;;;23.57;89.75
56681;BME280;42558;52.388;13.390;2022-08-27T14:10:48;100713.52;;;23.49;90.24
56681;BME280;42558;52.388;13.390;2022-08-27T14:15:49;100718.30;;;23.11;90.46
56681;BME280;42558;52.388;13.390;2022-08-27T14:21:16;100719.39;;;22.67;91.84
56681;BME280;42558;52.388;13.390;2022-08-27T14:23:43;100719.59;;;22.61;92.44